createdAt,value
2023-02-15T00:01:59.456Z,117.82
2023-02-15T00:04:47.393Z,119.88
2023-02-15T00:07:16.732Z,87.25
2023-02-15T00:09:45.402Z,101.07
2023-02-15T00:12:13.310Z,92.43
2023-02-15T00:14:43.109Z,101.45
2023-02-15T00:17:11.272Z,108.85
2023-02-15T00:19:40.941Z,91.13
2023-02-15T00:22:09.242Z,75.57
2023-02-15T00:24:37.451Z,59.17
2023-02-15T00:27:05.352Z,39.08
2023-02-15T00:29:33.587Z,39.80
2023-02-15T00:32:03.085Z,36.25
2023-02-15T00:34:31.273Z,42.90
2023-02-15T00:36:59.455Z,38.30
2023-02-15T00:39:28.218Z,33.47
2023-02-15T00:41:56.143Z,41.20
2023-02-15T00:44:24.356Z,31.23
2023-02-15T00:46:52.401Z,37.88
2023-02-15T00:49:21.954Z,43.22
2023-02-15T00:51:49.908Z,46.90
2023-02-15T00:54:18.079Z,48.92
2023-02-15T00:56:45.999Z,54.25
2023-02-15T00:59:14.297Z,63.30
2023-02-15T01:01:42.272Z,59.60
2023-02-15T01:04:10.477Z,84.88
2023-02-15T01:06:39.765Z,92.70
2023-02-15T01:09:08.036Z,95.15
2023-02-15T01:11:36.046Z,106.60
2023-02-15T01:14:05.006Z,101.65
2023-02-15T01:16:32.929Z,90.82
2023-02-15T01:19:03.452Z,73.22
2023-02-15T01:21:31.382Z,71.45
2023-02-15T01:24:00.981Z,58.75
2023-02-15T01:26:28.866Z,49.05
2023-02-15T01:28:57.193Z,51.03
2023-02-15T01:31:25.526Z,68.88
2023-02-15T01:33:53.867Z,57.42
2023-02-15T01:36:21.759Z,78.97
2023-02-15T01:38:50.387Z,84.00
2023-02-15T01:41:24.040Z,74.10
2023-02-15T01:43:54.328Z,63.45
2023-02-15T01:46:25.513Z,58.20
2023-02-15T01:48:57.107Z,57.50
2023-02-15T01:51:26.746Z,55.17
2023-02-15T01:54:00.663Z,70.10
2023-02-15T01:56:33.160Z,61.60
2023-02-15T01:59:05.519Z,60.17
2023-02-15T02:01:33.537Z,53.60
2023-02-15T02:04:07.991Z,50.63
2023-02-15T02:06:38.910Z,47.63
2023-02-15T02:09:07.122Z,50.60
2023-02-15T02:11:36.760Z,51.97
2023-02-15T02:14:05.004Z,57.78
2023-02-15T02:16:42.368Z,54.45
2023-02-15T02:19:28.051Z,59.45
2023-02-15T02:22:21.654Z,52.25
2023-02-15T02:25:24.898Z,48.60
2023-02-15T02:27:58.910Z,45.30
2023-02-15T02:30:43.872Z,51.13
2023-02-15T02:33:43.993Z,53.20
2023-02-15T02:36:19.544Z,57.55
2023-02-15T02:39:02.227Z,60.65
2023-02-15T02:41:34.572Z,62.60
2023-02-15T02:44:09.585Z,61.80
2023-02-15T02:46:41.701Z,55.35
2023-02-15T02:49:11.174Z,60.55
2023-02-15T02:51:39.545Z,66.95
2023-02-15T02:54:08.666Z,63.40
2023-02-15T02:56:39.785Z,56.95
2023-02-15T02:59:10.031Z,62.53
2023-02-15T03:01:41.338Z,56.65
2023-02-15T03:04:12.836Z,70.80
2023-02-15T03:06:43.157Z,62.92
2023-02-15T03:09:15.354Z,65.50
2023-02-15T03:11:45.741Z,57.17
2023-02-15T03:14:14.885Z,59.67
2023-02-15T03:16:43.921Z,61.10
2023-02-15T03:19:15.837Z,57.97
2023-02-15T03:21:50.291Z,67.68
2023-02-15T03:24:23.636Z,62.35
2023-02-15T03:26:52.881Z,58.35
2023-02-15T03:29:22.780Z,63.90
2023-02-15T03:31:53.850Z,63.72
2023-02-15T03:34:23.163Z,66.25
2023-02-15T03:36:55.390Z,58.03
2023-02-15T03:39:28.071Z,61.67
2023-02-15T03:41:59.520Z,63.65
2023-02-15T03:44:30.837Z,60.95
2023-02-15T03:47:03.434Z,67.47
2023-02-15T03:52:05.618Z,67.75
2023-02-15T03:54:44.859Z,72.10
2023-02-15T03:57:31.856Z,74.75
2023-02-15T04:00:17.562Z,65.55
2023-02-15T04:02:59.520Z,65.10
2023-02-15T04:05:28.996Z,65.95
2023-02-15T04:07:57.203Z,55.22
2023-02-15T04:10:42.887Z,60.30
2023-02-15T04:13:11.058Z,62.85
2023-02-15T04:15:56.977Z,58.05
2023-02-15T04:18:43.071Z,52.03
2023-02-15T04:21:29.827Z,55.28
2023-02-15T04:24:15.603Z,52.78
2023-02-15T04:26:43.512Z,55.97
2023-02-15T04:29:11.738Z,56.45
2023-02-15T04:31:39.732Z,48.78
2023-02-15T04:34:07.958Z,41.05
2023-02-15T04:36:37.504Z,41.47
2023-02-15T04:39:06.265Z,38.78
2023-02-15T04:41:34.225Z,36.25
2023-02-15T04:44:02.686Z,39.60
2023-02-15T04:46:30.642Z,39.40
2023-02-15T04:48:59.193Z,45.13
2023-02-15T04:51:27.083Z,46.60
2023-02-15T04:53:57.664Z,41.97
2023-02-15T04:56:25.582Z,46.00
2023-02-15T04:58:53.772Z,44.08
2023-02-15T05:01:21.797Z,39.97
2023-02-15T05:03:50.032Z,36.50
2023-02-15T05:06:18.199Z,36.35
2023-02-15T05:08:46.580Z,40.00
2023-02-15T05:11:15.841Z,39.00
2023-02-15T05:13:44.036Z,36.50
2023-02-15T05:16:12.215Z,39.15
2023-02-15T05:18:40.472Z,37.30
2023-02-15T05:21:08.383Z,37.60
2023-02-15T05:23:36.719Z,38.08
2023-02-15T05:26:22.474Z,36.78
2023-02-15T05:28:51.989Z,33.78
2023-02-15T05:31:21.196Z,41.33
2023-02-15T05:33:49.751Z,39.70
2023-02-15T05:36:17.649Z,36.75
2023-02-15T05:38:45.819Z,36.08
2023-02-15T05:41:13.784Z,35.97
2023-02-15T05:43:42.218Z,34.40
2023-02-15T05:46:11.945Z,30.65
2023-02-15T05:48:40.136Z,39.05
2023-02-15T05:51:09.379Z,32.75
2023-02-15T05:53:39.260Z,39.70
2023-02-15T05:56:08.488Z,45.42
2023-02-15T05:58:38.635Z,35.70
2023-02-15T06:01:11.872Z,34.88
2023-02-15T06:03:40.996Z,39.65
2023-02-15T06:06:09.481Z,40.83
2023-02-15T06:08:38.582Z,42.35
2023-02-15T06:11:07.126Z,40.65
2023-02-15T06:13:38.399Z,37.80
2023-02-15T06:16:07.308Z,37.43
2023-02-15T06:18:37.014Z,38.10
2023-02-15T06:21:05.062Z,37.15
2023-02-15T06:23:33.368Z,37.30
2023-02-15T06:26:01.644Z,35.03
2023-02-15T06:28:30.132Z,37.55
2023-02-15T06:30:58.272Z,33.63
2023-02-15T06:33:26.664Z,41.08
2023-02-15T06:35:55.954Z,34.65
2023-02-15T06:38:24.314Z,38.63
2023-02-15T06:40:52.243Z,32.72
2023-02-15T06:43:21.040Z,31.40
2023-02-15T06:45:49.400Z,32.58
2023-02-15T06:48:17.587Z,32.03
2023-02-15T06:50:45.650Z,38.78
2023-02-15T06:53:15.179Z,39.38
2023-02-15T06:55:43.455Z,32.97
2023-02-15T06:58:11.691Z,38.50
2023-02-15T07:00:39.581Z,33.63
2023-02-15T07:03:07.876Z,37.30
2023-02-15T07:05:36.514Z,30.85
2023-02-15T07:08:05.081Z,36.75
2023-02-15T07:10:34.546Z,39.47
2023-02-15T07:13:01.810Z,42.03
2023-02-15T07:15:30.499Z,39.30
2023-02-15T07:17:59.464Z,33.85
2023-02-15T07:20:27.630Z,36.28
2023-02-15T07:22:55.843Z,37.97
2023-02-15T07:25:23.866Z,32.60
2023-02-15T07:27:58.891Z,37.85
2023-02-15T07:30:26.951Z,29.45
2023-02-15T07:33:14.923Z,40.97
2023-02-15T07:35:49.548Z,33.70
2023-02-15T07:38:17.902Z,33.45
2023-02-15T07:40:46.345Z,34.63
2023-02-15T07:43:15.995Z,32.83
2023-02-15T07:45:44.099Z,31.33
2023-02-15T07:48:13.556Z,30.35
2023-02-15T07:50:41.728Z,33.35
2023-02-15T07:53:09.911Z,32.35
2023-02-15T07:55:37.884Z,32.85
2023-02-15T07:58:06.162Z,34.03
2023-02-15T08:00:55.415Z,32.17
2023-02-15T08:03:27.597Z,29.45
2023-02-15T08:05:59.219Z,30.50
2023-02-15T08:11:21.378Z,31.02
2023-02-15T08:13:57.162Z,29.33
2023-02-15T08:16:28.188Z,29.27
2023-02-15T08:18:57.255Z,33.17
2023-02-15T08:21:26.644Z,32.30
2023-02-15T08:23:55.273Z,31.77
2023-02-15T08:26:23.417Z,32.63
2023-02-15T08:28:52.792Z,40.47
2023-02-15T08:31:21.215Z,30.08
2023-02-15T08:33:52.456Z,31.35
2023-02-15T08:36:21.981Z,30.92
2023-02-15T08:38:50.802Z,30.15
2023-02-15T08:41:20.082Z,31.58
2023-02-15T08:43:50.298Z,30.25
2023-02-15T08:46:18.740Z,34.50
2023-02-15T08:48:47.734Z,32.13
2023-02-15T08:51:18.502Z,30.02
2023-02-15T08:53:49.976Z,29.85
2023-02-15T08:56:18.726Z,31.77
2023-02-15T08:58:47.172Z,31.40
2023-02-15T09:01:18.892Z,31.63
2023-02-15T09:03:48.621Z,32.25
2023-02-15T09:06:19.068Z,33.20
2023-02-15T09:08:47.455Z,32.65
2023-02-15T09:11:23.287Z,36.13
2023-02-15T09:13:53.249Z,35.47
2023-02-15T09:16:21.664Z,31.75
2023-02-15T09:18:50.162Z,30.13
2023-02-15T09:21:21.518Z,30.73
2023-02-15T09:23:51.386Z,33.17
2023-02-15T09:26:21.351Z,34.80
2023-02-15T09:28:50.331Z,34.20
2023-02-15T09:31:21.046Z,37.58
2023-02-15T09:33:50.392Z,31.45
2023-02-15T09:36:22.471Z,32.78
2023-02-15T09:38:56.173Z,30.85
2023-02-15T09:41:58.011Z,26.83
2023-02-15T09:44:37.614Z,33.05
2023-02-15T09:47:35.862Z,30.52
2023-02-15T09:50:09.851Z,29.88
2023-02-15T09:52:50.953Z,29.80
2023-02-15T09:55:38.430Z,32.90
2023-02-15T09:58:12.144Z,31.90
2023-02-15T10:00:46.271Z,31.38
2023-02-15T10:03:25.542Z,31.73
2023-02-15T10:06:07.972Z,32.17
2023-02-15T10:08:59.402Z,31.42
2023-02-15T10:11:42.542Z,27.45
2023-02-15T10:14:38.922Z,26.08
2023-02-15T10:17:17.121Z,27.52
2023-02-15T10:19:53.455Z,28.95
2023-02-15T10:22:31.646Z,31.73
2023-02-15T10:25:22.095Z,28.20
2023-02-15T10:27:51.371Z,28.55
2023-02-15T10:30:22.614Z,28.58
2023-02-15T10:32:59.390Z,32.53
2023-02-15T10:35:33.990Z,26.50
2023-02-15T10:38:15.636Z,26.55
2023-02-15T10:40:49.948Z,26.83
2023-02-15T10:43:31.751Z,24.25
2023-02-15T10:46:07.812Z,26.08
2023-02-15T10:49:10.577Z,26.90
2023-02-15T10:51:46.132Z,23.60
2023-02-15T10:54:24.947Z,24.33
2023-02-15T10:56:59.202Z,22.83
2023-02-15T10:59:46.219Z,20.73
2023-02-15T11:02:23.174Z,23.90
2023-02-15T11:04:57.616Z,21.10
2023-02-15T11:07:27.904Z,27.83
2023-02-15T11:10:02.655Z,22.85
2023-02-15T11:12:33.261Z,21.15
2023-02-15T11:15:05.109Z,25.38
2023-02-15T11:17:39.214Z,29.58
2023-02-15T11:20:17.251Z,29.00
2023-02-15T11:22:50.078Z,21.83
2023-02-15T11:25:21.690Z,22.83
2023-02-15T11:27:51.838Z,23.13
2023-02-15T11:30:23.954Z,22.63
2023-02-15T11:32:55.324Z,23.63
2023-02-15T11:35:28.527Z,21.90
2023-02-15T11:38:01.139Z,23.25
2023-02-15T11:40:32.503Z,23.00
2023-02-15T11:43:05.627Z,21.42
2023-02-15T11:45:35.542Z,21.40
2023-02-15T11:48:10.699Z,21.63
2023-02-15T11:50:39.254Z,19.85
2023-02-15T11:53:13.197Z,19.70
2023-02-15T11:55:41.901Z,17.27
2023-02-15T11:58:18.724Z,18.70
2023-02-15T12:00:48.863Z,16.77
2023-02-15T12:03:20.932Z,23.05
2023-02-15T12:06:02.551Z,20.05
2023-02-15T12:08:39.527Z,22.65
2023-02-15T12:11:13.334Z,23.30
2023-02-15T12:13:56.415Z,26.98
2023-02-15T12:16:24.840Z,25.98
2023-02-15T12:18:54.833Z,22.27
2023-02-15T12:21:29.409Z,22.58
2023-02-15T12:24:00.389Z,21.85
2023-02-15T12:26:30.427Z,19.97
2023-02-15T12:29:03.198Z,26.88
2023-02-15T12:31:38.681Z,33.38
2023-02-15T12:34:13.872Z,54.03
2023-02-15T12:36:47.499Z,24.85
2023-02-15T12:39:23.874Z,24.15
2023-02-15T12:42:07.619Z,23.60
2023-02-15T12:44:38.107Z,26.20
2023-02-15T12:47:08.364Z,31.10
2023-02-15T12:49:37.865Z,26.45
2023-02-15T12:52:08.894Z,29.38
2023-02-15T12:54:42.273Z,26.17
2023-02-15T12:57:26.189Z,65.97
2023-02-15T12:59:57.859Z,54.15
2023-02-15T13:02:29.807Z,40.63
2023-02-15T13:04:59.093Z,40.15
2023-02-15T13:07:33.071Z,32.95
2023-02-15T13:10:01.230Z,34.95
2023-02-15T13:12:31.555Z,57.35
2023-02-15T13:15:03.312Z,32.72
2023-02-15T13:17:34.804Z,36.65
2023-02-15T13:20:08.336Z,33.75
2023-02-15T13:22:43.043Z,41.92
2023-02-15T13:25:15.412Z,37.42
2023-02-15T13:27:45.253Z,33.67
2023-02-15T13:30:27.495Z,39.38
2023-02-15T13:32:58.179Z,29.33
2023-02-15T13:35:27.290Z,27.90
2023-02-15T13:38:25.839Z,48.00
2023-02-15T13:40:57.384Z,31.23
2023-02-15T13:43:36.058Z,32.38
2023-02-15T13:46:16.802Z,39.03
2023-02-15T13:48:51.480Z,40.33
2023-02-15T13:51:24.189Z,36.15
2023-02-15T13:54:03.198Z,38.97
2023-02-15T13:56:38.514Z,40.75
2023-02-15T13:59:27.041Z,60.22
2023-02-15T14:01:59.752Z,33.92
2023-02-15T14:04:50.230Z,74.60
2023-02-15T14:07:40.859Z,54.58
2023-02-15T14:10:34.887Z,61.63
2023-02-15T14:13:36.342Z,69.80
2023-02-15T14:16:07.553Z,41.45
2023-02-15T14:18:40.261Z,70.45
2023-02-15T14:21:12.576Z,92.10
2023-02-15T14:23:46.231Z,56.38
2023-02-15T14:26:20.248Z,56.40
2023-02-15T14:28:53.596Z,69.18
2023-02-15T14:31:27.963Z,148.55
2023-02-15T14:33:58.916Z,63.42
2023-02-15T14:36:27.978Z,141.43
2023-02-15T14:39:29.206Z,96.88
2023-02-15T14:41:59.863Z,51.08
2023-02-15T14:44:32.306Z,92.35
2023-02-15T14:47:03.815Z,85.28
2023-02-15T14:49:36.282Z,77.68
2023-02-15T14:52:08.007Z,59.13
2023-02-15T14:54:59.086Z,71.32
2023-02-15T14:57:36.775Z,78.05
2023-02-15T15:00:33.412Z,75.20
2023-02-15T15:03:02.010Z,107.75
2023-02-15T15:05:36.153Z,66.60
2023-02-15T15:08:06.142Z,72.80
2023-02-15T15:10:38.474Z,59.85
2023-02-15T15:13:55.514Z,58.83
2023-02-15T15:16:51.890Z,78.60
2023-02-15T15:20:04.948Z,62.63
2023-02-15T15:25:03.166Z,75.07
2023-02-15T15:27:51.357Z,64.32
2023-02-15T15:30:51.912Z,63.65
2023-02-15T15:34:06.902Z,70.30
2023-02-15T15:37:14.980Z,70.65
2023-02-15T15:40:11.657Z,95.13
2023-02-15T15:42:50.828Z,103.82
2023-02-15T15:45:33.171Z,79.63
2023-02-15T15:48:23.602Z,87.13
2023-02-15T15:50:55.585Z,83.47
2023-02-15T15:55:58.357Z,86.10
2023-02-15T15:58:26.683Z,105.82
2023-02-15T16:00:57.166Z,210.43
2023-02-15T16:03:26.612Z,143.90
2023-02-15T16:05:56.246Z,201.32
2023-02-15T16:08:32.784Z,167.88
2023-02-15T16:11:03.580Z,100.25
2023-02-15T16:13:31.836Z,113.32
2023-02-15T16:16:00.244Z,98.13
2023-02-15T16:18:29.397Z,107.32
2023-02-15T16:20:59.982Z,174.70
2023-02-15T16:23:50.729Z,228.65
2023-02-15T16:26:27.658Z,258.15
2023-02-15T16:28:56.237Z,203.25
2023-02-15T16:31:24.638Z,176.95
2023-02-15T16:33:55.871Z,207.10
2023-02-15T16:36:25.272Z,201.68
2023-02-15T16:39:10.490Z,182.05
2023-02-15T16:41:39.917Z,162.15
2023-02-15T16:44:13.662Z,167.35
2023-02-15T16:46:44.053Z,133.43
2023-02-15T16:49:18.334Z,130.68
2023-02-15T16:51:46.959Z,109.65
2023-02-15T16:54:20.630Z,125.55
2023-02-15T16:56:50.097Z,125.22
2023-02-15T16:59:30.720Z,106.35
2023-02-15T17:01:58.972Z,95.03
2023-02-15T17:04:31.089Z,87.45
2023-02-15T17:07:06.105Z,96.38
2023-02-15T17:09:35.158Z,93.55
2023-02-15T17:12:05.606Z,92.88
2023-02-15T17:14:34.258Z,88.38
2023-02-15T17:17:04.944Z,93.55
2023-02-15T17:19:34.875Z,103.07
2023-02-15T17:22:04.758Z,95.32
2023-02-15T17:24:40.998Z,94.82
2023-02-15T17:27:16.119Z,101.43
2023-02-15T17:29:47.704Z,98.95
2023-02-15T17:32:19.754Z,107.93
2023-02-15T17:35:00.647Z,120.85
2023-02-15T17:37:32.253Z,116.03
2023-02-15T17:40:02.204Z,122.95
2023-02-15T17:42:31.489Z,115.32
2023-02-15T17:44:59.704Z,124.25
2023-02-15T17:47:29.990Z,122.65
2023-02-15T17:49:58.217Z,127.85
2023-02-15T17:52:32.350Z,114.20
2023-02-15T17:55:18.156Z,115.63
2023-02-15T17:57:47.445Z,116.32
2023-02-15T18:00:34.405Z,120.43
2023-02-15T18:03:19.771Z,122.95
2023-02-15T18:06:05.486Z,115.22
2023-02-15T18:08:50.849Z,180.38
2023-02-15T18:11:36.793Z,146.40
2023-02-15T18:14:07.082Z,130.43
2023-02-15T18:16:36.781Z,140.55
2023-02-15T18:19:05.803Z,140.10
2023-02-15T18:21:34.495Z,129.48
2023-02-15T18:24:02.476Z,121.18
2023-02-15T18:26:31.263Z,124.47
2023-02-15T18:28:59.241Z,127.97
2023-02-15T18:31:28.852Z,135.68
2023-02-15T18:33:59.670Z,142.88
2023-02-15T18:36:30.543Z,133.10
2023-02-15T18:38:58.491Z,139.23
2023-02-15T18:41:26.846Z,141.77
2023-02-15T18:43:55.446Z,138.55
2023-02-15T18:46:23.710Z,136.68
2023-02-15T18:48:53.029Z,138.15
2023-02-15T18:51:23.497Z,167.60
2023-02-15T18:53:52.920Z,146.75
2023-02-15T18:56:22.972Z,139.05
2023-02-15T18:58:51.014Z,144.73
2023-02-15T19:01:21.257Z,150.75
2023-02-15T19:03:50.689Z,171.35
2023-02-15T19:06:21.717Z,161.70
2023-02-15T19:08:50.695Z,194.98
2023-02-15T19:11:22.430Z,275.98
2023-02-15T19:13:51.683Z,221.65
2023-02-15T19:16:30.619Z,220.02
2023-02-15T19:18:58.902Z,303.58
2023-02-15T19:21:29.450Z,241.48
2023-02-15T19:23:59.530Z,273.88
2023-02-15T19:26:44.487Z,279.17
2023-02-15T19:29:15.178Z,300.17
2023-02-15T19:31:43.901Z,243.77
2023-02-15T19:34:15.542Z,214.32
2023-02-15T19:36:46.556Z,228.93
2023-02-15T19:39:24.803Z,200.43
2023-02-15T19:41:53.387Z,192.93
2023-02-15T19:44:21.376Z,189.73
2023-02-15T19:46:49.590Z,172.43
2023-02-15T19:49:17.563Z,175.43
2023-02-15T19:51:47.585Z,150.02
2023-02-15T19:54:22.444Z,140.30
2023-02-15T19:56:50.634Z,152.13
2023-02-15T19:59:24.557Z,158.38
2023-02-15T20:01:53.001Z,174.48
2023-02-15T20:04:21.114Z,188.60
2023-02-15T20:06:51.555Z,184.60
2023-02-15T20:09:23.831Z,134.07
2023-02-15T20:11:52.602Z,145.55
2023-02-15T20:14:20.771Z,120.53
2023-02-15T20:16:49.047Z,94.97
2023-02-15T20:19:17.098Z,92.75
2023-02-15T20:21:51.589Z,93.90
2023-02-15T20:24:23.611Z,82.78
2023-02-15T20:29:20.581Z,95.00
2023-02-15T20:31:48.871Z,102.85
2023-02-15T20:34:17.181Z,99.72
2023-02-15T20:36:45.381Z,116.20
2023-02-15T20:39:16.076Z,117.22
2023-02-15T20:41:48.254Z,133.20
2023-02-15T20:44:23.793Z,138.82
2023-02-15T20:46:53.282Z,145.10
2023-02-15T20:49:21.669Z,164.65
2023-02-15T20:51:50.302Z,160.88
2023-02-15T20:54:20.253Z,163.65
2023-02-15T20:56:49.861Z,161.23
2023-02-15T20:59:22.506Z,162.68
2023-02-15T21:01:51.352Z,168.32
2023-02-15T21:04:21.087Z,178.60
2023-02-15T21:06:49.348Z,180.48
2023-02-15T21:09:18.307Z,164.60
2023-02-15T21:11:46.946Z,163.95
2023-02-15T21:14:20.320Z,174.65
2023-02-15T21:16:49.712Z,160.57
2023-02-15T21:19:19.625Z,173.60
2023-02-15T21:21:49.026Z,165.60
2023-02-15T21:24:20.502Z,176.95
2023-02-15T21:26:49.126Z,173.10
2023-02-15T21:29:19.571Z,184.55
2023-02-15T21:31:48.509Z,172.32
2023-02-15T21:34:18.108Z,187.18
2023-02-15T21:36:47.194Z,184.20
2023-02-15T21:39:18.278Z,169.20
2023-02-15T21:42:05.919Z,173.63
2023-02-15T21:44:53.067Z,178.98
2023-02-15T21:47:43.438Z,166.85
2023-02-15T21:50:30.618Z,170.15
2023-02-15T21:52:59.504Z,170.25
2023-02-15T21:55:28.059Z,166.77
2023-02-15T21:57:56.217Z,171.60
2023-02-15T22:00:27.626Z,171.77
2023-02-15T22:02:58.116Z,173.93
2023-02-15T22:05:28.718Z,187.45
2023-02-15T22:07:57.745Z,186.20
2023-02-15T22:10:26.911Z,177.40
2023-02-15T22:12:55.394Z,180.68
2023-02-15T22:15:26.068Z,189.40
2023-02-15T22:17:54.604Z,185.57
2023-02-15T22:20:24.316Z,199.07
2023-02-15T22:22:53.027Z,199.50
2023-02-15T22:25:23.324Z,210.05
2023-02-15T22:27:52.590Z,216.70
2023-02-15T22:30:23.716Z,204.20
2023-02-15T22:32:53.474Z,204.97
2023-02-15T22:35:24.065Z,207.23
2023-02-15T22:37:52.319Z,215.27
2023-02-15T22:40:21.225Z,217.48
2023-02-15T22:42:51.692Z,227.82
2023-02-15T22:45:21.650Z,228.60
2023-02-15T22:47:51.490Z,224.98
2023-02-15T22:50:22.538Z,245.05
2023-02-15T22:52:50.910Z,231.77
2023-02-15T22:55:20.430Z,238.77
2023-02-15T22:57:50.095Z,234.60
2023-02-15T23:00:20.031Z,230.43
2023-02-15T23:02:48.674Z,231.35
2023-02-15T23:05:20.510Z,222.13
2023-02-15T23:07:49.742Z,208.02
2023-02-15T23:10:24.645Z,221.45
2023-02-15T23:13:12.367Z,220.13
2023-02-15T23:15:41.631Z,228.95
2023-02-15T23:18:18.085Z,223.18
2023-02-15T23:20:49.475Z,220.25
2023-02-15T23:23:17.706Z,238.40
2023-02-15T23:25:45.654Z,234.77
2023-02-15T23:28:21.903Z,232.90
2023-02-15T23:30:50.120Z,233.18
2023-02-15T23:33:20.131Z,239.55
2023-02-15T23:35:49.502Z,236.68
2023-02-15T23:38:24.271Z,241.95
2023-02-15T23:41:12.856Z,257.13
2023-02-15T23:43:42.951Z,243.45
2023-02-15T23:46:21.785Z,244.30
2023-02-15T23:48:50.060Z,255.05
2023-02-15T23:51:19.728Z,256.00
2023-02-15T23:53:47.960Z,244.52
2023-02-15T23:56:16.055Z,240.77
2023-02-15T23:58:45.804Z,250.73
